Time;durP1;ratioP1;P1;durP2;ratioP2;P2;SDS_P1;SDS_P2;PMS_P1;PMS_P2;Temp;Humidity;BMP_temperature;BMP_pressure;BME280_temperature;BME280_humidity;BME280_pressure;Samples;Min_cycle;Max_cycle;Signal;HPM_P1;HPM_P2
2021/11/10 00:04:37;;;;;;;44.87;25.43;;;;;;;6.02;100.00;102117.27;5227596;55;1143134;-85
2021/11/10 00:09:43;;;;;;;43.63;23.77;;;;;;;6.00;100.00;102115.14;5202041;55;1143093;-85
2021/11/10 00:14:49;;;;;;;42.07;22.23;;;;;;;5.93;100.00;102117.13;5253285;55;1143110;-85
2021/11/10 00:19:54;;;;;;;42.50;24.67;;;;;;;5.94;100.00;102110.97;5237716;55;1143141;-85
2021/11/10 00:25:00;;;;;;;51.18;27.55;;;;;;;5.95;100.00;102114.45;5146863;56;1143343;-85
2021/11/10 00:30:07;;;;;;;44.60;24.27;;;;;;;5.92;100.00;102113.23;5249566;55;1143072;-84
2021/11/10 00:35:13;;;;;;;42.57;22.13;;;;;;;5.88;100.00;102115.52;5159149;56;1141019;-85
2021/11/10 00:40:19;;;;;;;40.83;21.20;;;;;;;5.83;100.00;102114.34;5245666;55;1143154;-85
2021/11/10 00:45:25;;;;;;;40.17;21.23;;;;;;;5.80;100.00;102107.04;5153590;56;1143180;-85
2021/11/10 00:50:33;;;;;;;38.10;21.10;;;;;;;5.77;100.00;102111.07;5251278;55;1143309;-85
2021/11/10 00:55:40;;;;;;;42.23;22.07;;;;;;;5.77;100.00;102107.99;5163606;55;1143257;-85
2021/11/10 01:00:47;;;;;;;38.87;22.50;;;;;;;5.78;100.00;102097.90;5240579;55;1139022;-85
2021/11/10 01:05:52;;;;;;;36.40;20.63;;;;;;;5.78;100.00;102093.96;5251451;55;1138923;-85
2021/11/10 01:10:59;;;;;;;34.23;19.50;;;;;;;5.77;100.00;102089.62;5239665;55;1141048;-86
2021/11/10 01:16:06;;;;;;;32.53;19.40;;;;;;;5.73;100.00;102088.44;5162916;55;1141080;-85
2021/11/10 01:21:12;;;;;;;40.23;21.90;;;;;;;5.79;100.00;102094.82;5245374;56;1141041;-84
2021/11/10 01:26:19;;;;;;;36.83;21.57;;;;;;;5.79;100.00;102087.80;5238054;55;1140418;-85
2021/11/10 01:31:25;;;;;;;39.87;21.80;;;;;;;5.75;100.00;102083.55;5238550;55;1139110;-85
2021/11/10 01:36:32;;;;;;;43.27;22.97;;;;;;;5.71;100.00;102076.68;5123183;55;1139213;-85
2021/11/10 01:41:48;;;;;;;37.47;20.73;;;;;;;5.65;100.00;102080.83;5187170;56;1141250;-85
2021/11/10 01:46:59;;;;;;;36.20;21.37;;;;;;;5.70;100.00;102077.58;5274736;55;1141045;-85
2021/11/10 01:52:07;;;;;;;36.63;20.30;;;;;;;5.79;100.00;102075.13;5284040;55;1141173;-85
2021/11/10 01:57:14;;;;;;;43.07;22.40;;;;;;;5.71;100.00;102066.17;5331725;55;1138965;-85
2021/11/10 02:02:25;;;;;;;41.43;21.80;;;;;;;5.61;100.00;102059.52;5324176;55;1138962;-85
2021/11/10 02:07:31;;;;;;;42.63;21.33;;;;;;;5.53;100.00;102058.89;5314682;55;1138890;-84
2021/11/10 02:12:39;;;;;;;38.17;21.23;;;;;;;5.55;100.00;102050.06;5337107;55;1138806;-85
2021/11/10 02:17:55;;;;;;;37.27;22.27;;;;;;;5.61;100.00;102047.71;5337187;55;1152917;-85
2021/11/10 02:23:05;;;;;;;38.83;21.27;;;;;;;5.62;100.00;102041.10;5322633;55;1141217;-85
2021/11/10 02:28:11;;;;;;;40.77;20.60;;;;;;;5.52;99.66;102033.55;5329173;55;1140925;-85
2021/11/10 02:33:21;;;;;;;36.57;19.37;;;;;;;5.34;98.36;102025.85;5323899;55;1140899;-86
2021/11/10 02:38:27;;;;;;;34.67;19.80;;;;;;;5.21;98.00;102028.42;5326318;55;1141043;-86
2021/11/10 02:43:33;;;;;;;39.53;22.90;;;;;;;5.13;98.49;102012.09;5283426;55;1141045;-85
2021/11/10 02:48:39;;;;;;;36.83;21.33;;;;;;;4.99;98.13;101998.09;5232218;55;1138987;-86
2021/11/10 02:53:45;;;;;;;38.03;19.33;;;;;;;4.82;97.87;101997.75;5231930;55;1138950;-86
2021/11/10 02:58:51;;;;;;;32.17;19.30;;;;;;;4.67;97.30;101989.89;5203623;55;1138979;-86
2021/11/10 03:03:57;;;;;;;37.10;21.10;;;;;;;4.57;97.46;102002.41;5161241;55;1140955;-86
2021/11/10 03:09:02;;;;;;;38.30;21.73;;;;;;;4.52;97.93;101997.75;5157310;55;1139058;-86
2021/11/10 03:14:08;;;;;;;43.57;20.23;;;;;;;4.50;98.00;101982.52;5162676;55;1138852;-86
2021/11/10 03:19:14;;;;;;;32.20;18.33;;;;;;;4.46;97.83;101975.64;5162349;55;1138907;-85
2021/11/10 03:24:21;;;;;;;30.37;17.93;;;;;;;4.36;97.01;101981.20;5164444;55;1138986;-86
2021/11/10 03:29:27;;;;;;;35.80;18.93;;;;;;;4.33;97.30;101991.77;5164372;55;1140980;-86
2021/11/10 03:34:33;;;;;;;35.10;17.90;;;;;;;4.34;97.50;101986.48;5165182;55;1138993;-85
2021/11/10 03:39:40;;;;;;;35.97;19.53;;;;;;;4.33;97.58;101986.07;5167871;55;1139024;-86
2021/11/10 03:44:46;;;;;;;33.63;17.17;;;;;;;4.20;96.66;101986.88;5209855;55;1139049;-87
2021/11/10 03:49:52;;;;;;;34.47;18.93;;;;;;;4.07;96.07;101979.40;5202174;55;1139102;-85
2021/11/10 03:54:58;;;;;;;37.07;21.07;;;;;;;3.94;95.92;101976.27;5281767;55;1141273;-85
2021/11/10 04:00:06;;;;;;;38.95;21.05;;;;;;;3.86;96.46;101973.83;5280057;55;1139000;-86
2021/11/10 04:05:13;;;;;;;36.93;19.83;;;;;;;3.79;96.45;101968.81;5276961;55;1139270;-86
2021/11/10 04:10:21;;;;;;;40.13;20.13;;;;;;;3.71;96.41;101967.69;5264827;55;1139033;-85
2021/11/10 04:15:28;;;;;;;39.37;19.33;;;;;;;3.65;96.57;101961.33;5298768;55;1138919;-85
2021/11/10 04:20:34;;;;;;;57.97;22.27;;;;;;;3.59;96.02;101958.00;5289255;55;1139093;-85
2021/11/10 04:25:41;;;;;;;65.37;26.93;;;;;;;3.54;95.98;101954.19;5291086;55;1141016;-85
2021/11/10 04:30:49;;;;;;;74.20;28.43;;;;;;;3.53;96.41;101954.63;5297111;55;1138969;-86
2021/11/10 04:35:55;;;;;;;74.00;29.13;;;;;;;3.49;96.27;101954.33;5287037;55;1139383;-84
2021/11/10 04:41:03;;;;;;;62.53;26.03;;;;;;;3.46;96.39;101950.47;5284357;56;1139038;-85
2021/11/10 04:46:31;;;;;;;104.03;43.60;;;;;;;3.45;96.27;101950.06;5218325;55;1138991;-87
2021/11/10 04:51:35;;;;;;;79.27;34.10;;;;;;;3.46;96.42;101943.94;5199360;55;1141049;-85
2021/11/10 04:56:42;;;;;;;67.20;30.73;;;;;;;3.47;96.80;101931.27;5215394;55;1136955;-86
2021/11/10 05:02:23;;;;;;;56.67;26.77;;;;;;;3.44;96.83;101928.73;5178450;55;1136849;-86
2021/11/10 05:06:56;;;;;;;54.83;25.47;;;;;;;3.40;96.74;101928.39;5164425;56;1136843;-85
2021/11/10 05:12:02;;;;;;;58.13;28.40;;;;;;;3.34;96.59;101921.16;5163050;55;1139158;-84
2021/11/10 05:17:08;;;;;;;53.87;27.30;;;;;;;3.29;96.99;101912.12;5157157;56;1137063;-86
2021/11/10 05:22:16;;;;;;;48.70;24.10;;;;;;;3.21;97.06;101910.12;5158080;56;1136852;-85
2021/11/10 05:27:22;;;;;;;42.57;22.33;;;;;;;3.15;97.04;101908.55;5144332;55;1137076;-86
2021/11/10 05:32:27;;;;;;;49.23;24.03;;;;;;;3.13;97.06;101899.02;5275800;55;1138927;-84
2021/11/10 05:37:33;;;;;;;48.60;24.40;;;;;;;3.09;97.31;101898.67;5331465;54;1136890;-87
2021/11/10 05:42:39;;;;;;;45.83;23.50;;;;;;;3.06;97.63;101900.05;5242179;55;1136887;-87
2021/11/10 05:47:45;;;;;;;44.47;22.47;;;;;;;3.05;97.93;101898.36;5271526;55;1136875;-88
2021/11/10 05:52:51;;;;;;;42.83;24.00;;;;;;;3.03;97.76;101899.70;5190119;56;1139167;-88
2021/11/10 05:57:58;;;;;;;47.37;24.77;;;;;;;3.05;98.07;101889.22;5298013;54;1136769;-85
2021/11/10 06:03:04;;;;;;;45.58;23.55;;;;;;;3.03;98.33;101894.48;5242954;55;1136897;-88
2021/11/10 06:08:11;;;;;;;39.70;20.97;;;;;;;3.07;98.41;101893.48;5250094;55;1136993;-85
2021/11/10 06:13:17;;;;;;;50.43;24.33;;;;;;;3.08;98.29;101886.05;5088899;56;1139291;-86
2021/11/10 06:18:23;;;;;;;52.47;25.27;;;;;;;3.11;98.54;101883.81;5161030;56;1134791;-85
2021/11/10 06:23:29;;;;;;;44.60;24.63;;;;;;;3.11;98.95;101884.67;5130440;57;1134772;-85
2021/11/10 06:28:36;;;;;;;50.43;24.40;;;;;;;3.12;99.16;101883.78;5344765;55;1139057;-86
2021/11/10 06:33:42;;;;;;;49.85;25.82;;;;;;;3.15;99.06;101886.33;5345499;54;1138939;-85
2021/11/10 06:38:49;;;;;;;51.83;27.20;;;;;;;3.20;99.33;101885.36;5355368;54;1140923;-85
2021/11/10 06:43:55;;;;;;;52.23;27.20;;;;;;;3.20;99.45;101884.91;5319905;54;1138871;-85
2021/11/10 06:49:00;;;;;;;65.97;30.57;;;;;;;3.21;99.66;101877.45;5248830;55;1138984;-84
2021/11/10 06:54:06;;;;;;;45.23;24.33;;;;;;;3.26;99.88;101882.13;5168921;55;1139119;-85
2021/11/10 06:59:12;;;;;;;87.27;48.63;;;;;;;3.35;99.94;101879.73;5240382;55;1141032;-85
2021/11/10 07:04:18;;;;;;;58.73;29.57;;;;;;;3.50;100.00;101878.03;5219175;55;1138948;-85
2021/11/10 07:09:24;;;;;;;49.37;26.57;;;;;;;3.62;100.00;101878.14;5347516;54;1141240;-86
2021/11/10 07:14:30;;;;;;;62.53;33.87;;;;;;;3.78;100.00;101881.61;5345903;54;1141188;-86
2021/11/10 07:19:36;;;;;;;150.80;76.43;;;;;;;4.04;100.00;101884.78;5333441;54;1143082;-86
2021/11/10 07:24:42;;;;;;;136.27;72.10;;;;;;;4.29;100.00;101888.84;5341667;54;1143091;-84
2021/11/10 07:29:48;;;;;;;104.85;58.87;;;;;;;4.57;100.00;101881.89;5326751;55;1143018;-85
2021/11/10 07:34:54;;;;;;;49.40;27.53;;;;;;;4.88;100.00;101890.09;5338419;55;1143123;-84
2021/11/10 07:40:01;;;;;;;74.60;38.97;;;;;;;5.15;100.00;101897.51;5331231;55;1143131;-84
2021/11/10 07:45:16;;;;;;;61.97;30.87;;;;;;;5.37;99.79;101883.20;5278744;55;1141252;-85
2021/11/10 07:50:21;;;;;;;53.58;28.70;;;;;;;5.37;99.79;101883.20;5329969;54;1138856;-85
2021/11/10 07:55:28;;;;;;;65.50;38.73;;;;;;;5.53;99.80;101877.83;5342044;54;1140980;-86
2021/11/10 08:00:39;;;;;;;57.33;29.73;;;;;;;5.72;98.71;101892.02;5335783;54;1140987;-84
2021/11/10 08:05:45;;;;;;;50.80;26.97;;;;;;;5.91;99.35;101889.63;5307792;53;1138952;-86
2021/11/10 08:10:58;;;;;;;67.23;42.23;;;;;;;6.12;99.23;101884.03;5284013;54;1138907;-86
2021/11/10 08:16:05;;;;;;;69.27;43.20;;;;;;;6.27;98.24;101874.25;5268379;54;1140913;-85
2021/11/10 08:21:11;;;;;;;59.03;32.37;;;;;;;6.54;99.75;101883.73;5333658;54;1140890;-86
2021/11/10 08:26:18;;;;;;;93.53;47.77;;;;;;;7.06;99.66;101893.45;5244762;55;1141200;-86
2021/11/10 08:31:24;;;;;;;54.63;28.40;;;;;;;7.06;99.66;101893.45;5194187;55;1138914;-87
2021/11/10 08:36:30;;;;;;;50.87;26.93;;;;;;;7.11;97.68;101899.86;5142089;56;1141202;-87
2021/11/10 08:41:36;;;;;;;45.13;25.23;;;;;;;7.21;97.05;101902.03;5157755;55;1140903;-87
2021/11/10 08:46:42;;;;;;;51.47;29.37;;;;;;;7.39;97.56;101897.32;5118461;56;1141002;-87
2021/11/10 08:51:49;;;;;;;49.60;26.90;;;;;;;7.60;98.39;101888.12;5161195;56;1141063;-88
2021/11/10 08:56:58;;;;;;;48.60;24.80;;;;;;;7.87;97.45;101884.72;5162755;56;1140614;-89
2021/11/10 09:02:04;;;;;;;43.93;21.90;;;;;;;7.95;95.47;101893.12;5254159;54;1140986;-79
2021/11/10 09:07:10;;;;;;;46.83;22.40;;;;;;;7.76;92.94;101882.12;5148707;56;1141118;-76
2021/11/10 09:12:16;;;;;;;46.07;24.27;;;;;;;7.48;93.60;101886.02;5241207;55;1141182;-87
2021/11/10 09:17:22;;;;;;;39.37;21.93;;;;;;;7.38;94.24;101883.77;5253343;55;1140905;-88
2021/11/10 09:22:30;;;;;;;47.53;25.50;;;;;;;7.25;93.37;101874.67;5298765;54;1138918;-86
2021/11/10 09:27:38;;;;;;;32.57;18.23;;;;;;;7.24;94.39;101855.00;5325616;54;1139066;-86
2021/11/10 09:32:46;;;;;;;33.73;19.27;;;;;;;7.36;94.62;101846.12;5326676;54;1138929;-92
2021/11/10 09:37:55;;;;;;;40.00;21.47;;;;;;;7.42;94.14;101851.59;5333870;54;1139263;-87
2021/11/10 09:43:03;;;;;;;37.67;19.77;;;;;;;7.52;94.99;101838.88;5334552;54;1138767;-88
2021/11/10 09:48:10;;;;;;;39.03;20.60;;;;;;;7.72;94.52;101826.55;5338460;54;1138584;-87
2021/11/10 09:53:18;;;;;;;32.30;18.07;;;;;;;7.73;93.26;101828.72;5352757;53;1138817;-88
2021/11/10 09:58:26;;;;;;;41.10;17.20;;;;;;;7.80;93.21;101845.94;5268106;55;1139017;-85
2021/11/10 10:03:35;;;;;;;43.00;20.82;;;;;;;7.79;92.15;101842.94;5229421;55;1138808;-86
2021/11/10 10:08:44;;;;;;;37.27;18.70;;;;;;;7.83;91.80;101830.00;5236268;55;1138864;-85
2021/11/10 10:13:50;;;;;;;37.93;19.20;;;;;;;7.97;92.77;101828.91;5303082;54;1138397;-85
2021/11/10 10:19:14;;;;;;;33.13;19.07;;;;;;;8.04;92.43;101825.55;5341908;54;1139161;-87
2021/11/10 10:24:20;;;;;;;46.03;25.23;;;;;;;8.09;92.45;101809.92;5354497;55;21793;-86
2021/11/10 10:29:26;;;;;;;37.83;24.27;;;;;;;8.20;92.11;101802.83;5314772;54;1142475;-87
2021/11/10 10:34:32;;;;;;;41.47;22.20;;;;;;;8.33;92.78;101795.22;5175468;56;1141091;-88
2021/11/10 10:39:37;;;;;;;37.45;18.42;;;;;;;8.42;90.82;101788.17;5192317;55;1141042;-84
2021/11/10 10:44:45;;;;;;;39.93;20.00;;;;;;;8.51;90.96;101790.38;5261397;55;1140993;-85
2021/11/10 10:49:51;;;;;;;36.93;18.53;;;;;;;8.60;90.44;101787.28;5096304;56;1141132;-88
2021/11/10 10:54:57;;;;;;;34.20;19.33;;;;;;;8.70;89.92;101774.05;5287932;54;1140976;-87
2021/11/10 11:00:14;;;;;;;38.90;16.63;;;;;;;8.73;90.05;101763.79;5320498;54;1141037;-91
2021/11/10 11:05:40;;;;;;;198.70;119.87;;;;;;;8.85;89.67;101761.02;5346302;54;1140984;-88
2021/11/10 11:10:46;;;;;;;33.80;18.83;;;;;;;8.93;89.80;101750.45;5332099;55;1145371;-86
2021/11/10 11:16:09;;;;;;;57.87;25.07;;;;;;;9.04;89.78;101748.11;5327804;54;1141033;-87
2021/11/10 11:21:26;;;;;;;28.07;13.57;;;;;;;9.18;90.02;101736.36;5236921;56;1141034;-87
2021/11/10 11:26:38;;;;;;;30.43;14.55;;;;;;;9.38;90.17;101720.80;5231899;56;1141261;-89
2021/11/10 11:31:43;;;;;;;20.83;11.87;;;;;;;9.64;88.99;101720.70;5265735;55;1141129;-87
2021/11/10 11:36:56;;;;;;;21.83;11.40;;;;;;;9.83;87.04;101720.56;5247748;55;1141126;-86
2021/11/10 11:42:02;;;;;;;20.73;12.73;;;;;;;9.94;82.07;101707.59;5258093;55;1140976;-86
2021/11/10 11:47:09;;;;;;;25.23;15.70;;;;;;;9.96;81.17;101704.40;5279697;55;1141023;-87
2021/11/10 11:52:16;;;;;;;24.37;14.33;;;;;;;10.00;83.45;101704.62;5236971;55;1140998;-89
2021/11/10 11:57:23;;;;;;;27.83;14.87;;;;;;;10.05;81.39;101701.72;5375649;55;1143045;-91
2021/11/10 12:02:51;;;;;;;25.10;15.57;;;;;;;10.03;80.40;101707.56;5375597;55;1143110;-89
2021/11/10 12:07:58;;;;;;;51.30;21.87;;;;;;;10.21;81.95;101705.23;5375724;55;1143181;-90
2021/11/10 12:13:19;;;;;;;25.47;14.40;;;;;;;10.51;82.08;101706.58;5375006;54;1141045;-89
2021/11/10 12:18:25;;;;;;;23.80;12.60;;;;;;;10.64;79.31;101705.38;5375112;54;1140963;-90
2021/11/10 12:23:55;;;;;;;19.90;12.10;;;;;;;10.72;77.76;101697.36;5374475;54;1141006;-78
2021/11/10 12:29:04;;;;;;;23.90;13.90;;;;;;;10.90;78.08;101693.62;5296185;55;1141051;-87
2021/11/10 12:34:23;;;;;;;23.80;14.27;;;;;;;10.84;78.50;101688.71;5314819;54;1141068;-87
2021/11/10 12:39:44;;;;;;;21.97;13.00;;;;;;;10.70;76.32;101682.52;5310674;55;1141050;-77
2021/11/10 12:44:54;;;;;;;20.35;12.43;;;;;;;10.41;77.04;101667.89;5281668;55;1143181;-77
2021/11/10 12:50:23;;;;;;;28.20;15.53;;;;;;;10.31;79.15;101657.95;5226890;56;1143004;-88
2021/11/10 12:55:33;;;;;;;34.97;15.43;;;;;;;10.68;80.03;101654.85;5386511;54;1143312;-88
2021/11/10 13:00:40;;;;;;;21.70;13.33;;;;;;;11.16;80.37;101656.75;5408765;54;1143105;-85
2021/11/10 13:05:53;;;;;;;33.43;17.30;;;;;;;11.54;75.39;101652.56;5388842;54;1143109;-88
2021/11/10 13:10:54;;;;;;;27.07;15.03;;;;;;;11.54;74.73;101647.74;5347086;54;1143096;-93
2021/11/10 13:16:04;;;;;;;32.17;18.47;;;;;;;11.52;75.96;101650.48;5306111;55;1143114;-87
2021/11/10 13:21:10;;;;;;;26.83;15.67;;;;;;;11.48;75.95;101651.62;5177934;56;1143081;-90
2021/11/10 13:26:17;;;;;;;29.97;17.57;;;;;;;11.39;76.29;101653.53;5147800;57;1143135;-89
2021/11/10 13:31:23;;;;;;;32.57;18.67;;;;;;;11.68;77.95;101650.36;5305912;55;1143074;-90
2021/11/10 13:36:29;;;;;;;24.77;15.63;;;;;;;11.93;76.93;101650.49;5265254;55;1143124;-87
2021/11/10 13:41:38;;;;;;;32.90;17.77;;;;;;;12.02;75.90;101653.03;5258909;55;1143246;-88
2021/11/10 13:46:53;;;;;;;29.83;16.77;;;;;;;11.84;75.56;101648.45;5129401;56;1143185;-85
2021/11/10 13:52:06;;;;;;;31.20;17.63;;;;;;;11.66;76.41;101643.45;5263070;55;1143293;-87
2021/11/10 13:57:22;;;;;;;23.20;14.70;;;;;;;11.49;76.42;101650.67;5195700;55;1143109;-86
2021/11/10 14:02:40;;;;;;;32.17;17.17;;;;;;;11.20;76.37;101647.68;5002653;57;1143363;-85
2021/11/10 14:07:46;;;;;;;32.40;15.63;;;;;;;10.81;77.14;101649.20;5092049;56;1143155;-88
2021/11/10 14:12:55;;;;;;;24.80;15.73;;;;;;;10.45;77.76;101661.49;5092407;56;1143338;-85
2021/11/10 14:18:19;;;;;;;32.40;17.67;;;;;;;10.17;78.55;101653.44;5100848;56;1143126;-87
2021/11/10 14:23:30;;;;;;;27.57;16.63;;;;;;;9.95;79.54;101655.13;5230409;55;1143143;-84
2021/11/10 14:28:39;;;;;;;37.73;18.20;;;;;;;9.83;80.05;101650.54;5197585;55;1139022;-86
2021/11/10 14:33:52;;;;;;;46.80;24.80;;;;;;;9.75;80.34;101658.06;5217880;55;1138928;-88
2021/11/10 14:38:57;;;;;;;68.60;31.87;;;;;;;9.64;80.65;101653.81;5245207;55;1138935;-89
2021/11/10 14:44:12;;;;;;;62.67;34.57;;;;;;;9.60;81.53;101654.48;5296118;54;1138902;-88
2021/11/10 14:49:27;;;;;;;70.07;37.13;;;;;;;9.66;82.26;101653.27;5334394;54;1138901;-90
2021/11/10 14:54:40;;;;;;;68.27;36.57;;;;;;;9.61;82.20;101645.62;5299082;54;1138907;-88
2021/11/10 14:59:49;;;;;;;113.05;46.95;;;;;;;9.58;82.56;101648.89;5246317;55;1138942;-91
2021/11/10 15:05:07;;;;;;;328.77;147.93;;;;;;;9.50;82.59;101646.66;5241837;55;1140897;-91
2021/11/10 15:10:25;;;;;;;234.93;120.13;;;;;;;9.36;82.63;101651.38;5249500;55;1140904;-90
2021/11/10 15:15:35;;;;;;;213.90;110.10;;;;;;;9.23;82.35;101650.34;5267701;54;1145143;-89
2021/11/10 15:20:41;;;;;;;316.13;160.23;;;;;;;9.15;82.68;101650.77;5319613;54;1145130;-87
2021/11/10 15:25:50;;;;;;;170.33;77.07;;;;;;;8.94;81.98;101647.95;5274913;54;1145446;-87
2021/11/10 15:30:59;;;;;;;103.40;53.63;;;;;;;8.48;81.71;101655.21;5250244;54;1143083;-89
2021/11/10 15:36:13;;;;;;;52.57;26.47;;;;;;;8.28;83.02;101654.39;5245734;55;1143013;-87
2021/11/10 15:41:19;;;;;;;55.57;29.47;;;;;;;8.02;82.71;101660.09;5249817;55;1141033;-88
2021/11/10 15:46:22;;;;;;;77.10;41.10;;;;;;;7.81;83.21;101663.30;5387510;54;1140947;-89
2021/11/10 15:51:28;;;;;;;60.30;30.47;;;;;;;7.87;84.46;101666.11;5398567;54;1141017;-89
2021/11/10 15:56:36;;;;;;;67.73;33.93;;;;;;;7.85;84.07;101663.55;5364878;54;1140988;-86
2021/11/10 16:01:42;;;;;;;180.80;72.00;;;;;;;7.86;84.78;101657.81;5283025;54;1141146;-90
2021/11/10 16:06:49;;;;;;;154.27;62.93;;;;;;;7.87;85.02;101649.84;5312765;54;1141044;-88
2021/11/10 16:11:54;;;;;;;155.83;59.57;;;;;;;7.79;84.47;101648.52;5322617;54;1140935;-89
2021/11/10 16:17:00;;;;;;;110.73;46.73;;;;;;;7.73;84.15;101654.92;5348244;54;1143040;-89
2021/11/10 16:22:07;;;;;;;81.70;38.43;;;;;;;7.63;84.25;101645.30;5310829;54;1143103;-89
2021/11/10 16:27:19;;;;;;;53.20;25.87;;;;;;;7.59;84.54;101643.73;5250815;55;1141015;-87
2021/11/10 16:37:48;;;;;;;296.90;137.03;;;;;;;7.35;83.79;101643.54;5242750;55;1138939;-74
2021/11/10 16:42:54;;;;;;;143.67;64.30;;;;;;;7.17;84.45;101644.41;5307316;54;1143228;-74
2021/11/10 16:48:00;;;;;;;109.32;43.20;;;;;;;7.15;84.80;101648.42;5426745;54;1143096;-77
2021/11/10 16:53:07;;;;;;;134.33;52.17;;;;;;;7.03;83.79;101648.95;5397659;54;1143362;-78
2021/11/10 16:58:24;;;;;;;177.60;94.43;;;;;;;6.92;84.62;101642.01;5295914;54;1143140;-80
2021/11/10 17:03:30;;;;;;;425.10;183.33;;;;;;;6.93;85.19;101640.63;5290173;55;1143178;-80
2021/11/10 17:08:36;;;;;;;289.03;118.20;;;;;;;6.90;85.34;101631.55;5292887;54;1144036;-76
2021/11/10 17:13:43;;;;;;;175.75;79.85;;;;;;;6.88;85.27;101632.54;5306701;54;1143158;-78
2021/11/10 17:18:49;;;;;;;190.28;84.15;;;;;;;6.78;84.73;101624.67;5298336;54;1141046;-77
2021/11/10 17:23:54;;;;;;;231.87;99.00;;;;;;;6.63;84.08;101627.06;5251283;54;1143423;-77
2021/11/10 17:29:00;;;;;;;222.83;93.03;;;;;;;6.41;84.02;101620.18;5313429;54;1143188;-78
2021/11/10 17:34:06;;;;;;;218.67;88.47;;;;;;;6.29;84.33;101622.39;5307436;54;1143000;-79
2021/11/10 17:39:11;;;;;;;177.97;68.07;;;;;;;6.29;85.28;101612.34;5287797;54;1138930;-81
2021/11/10 17:44:17;;;;;;;184.60;74.90;;;;;;;6.31;85.67;101617.07;5314445;54;1138918;-75
2021/11/10 17:49:23;;;;;;;266.67;98.83;;;;;;;6.30;85.77;101620.61;5276368;54;1139012;-78
2021/11/10 17:54:31;;;;;;;275.07;100.23;;;;;;;6.28;85.20;101633.81;5328520;55;1139256;-76
2021/11/10 17:59:38;;;;;;;356.23;146.77;;;;;;;6.17;84.81;101636.05;5285712;54;1141054;-79
2021/11/10 18:04:46;;;;;;;449.90;214.77;;;;;;;6.18;85.07;101642.15;5330094;54;1143115;-77
2021/11/10 18:09:51;;;;;;;390.23;174.87;;;;;;;6.17;85.58;101633.87;5306338;54;1143101;-78
2021/11/10 18:14:57;;;;;;;376.70;169.07;;;;;;;6.20;85.34;101641.62;5307677;54;1140414;-79
2021/11/10 18:20:07;;;;;;;350.40;167.07;;;;;;;6.15;85.52;101640.95;5279947;54;1141299;-77
2021/11/10 18:25:14;;;;;;;309.27;130.80;;;;;;;6.08;85.39;101638.20;5243204;55;1141039;-76
2021/11/10 18:30:20;;;;;;;193.43;77.40;;;;;;;6.01;85.46;101633.64;5292162;54;1141191;-76
2021/11/10 18:35:28;;;;;;;144.07;59.80;;;;;;;5.92;84.96;101621.77;5248627;55;1138940;-79
2021/11/10 18:40:35;;;;;;;114.30;48.17;;;;;;;5.92;84.96;101618.28;5323744;54;1141057;-77
2021/11/10 18:45:42;;;;;;;151.90;60.60;;;;;;;5.91;85.24;101626.62;5323039;54;1139053;-79
2021/11/10 18:50:48;;;;;;;136.27;54.73;;;;;;;5.74;84.16;101636.05;5257609;54;1139025;-78
2021/11/10 18:55:56;;;;;;;111.73;49.83;;;;;;;5.61;85.07;101630.43;5299783;54;1139228;-77
2021/11/10 19:01:01;;;;;;;211.20;96.85;;;;;;;5.59;85.58;101628.32;5271353;55;1137143;-76
2021/11/10 19:07:12;;;;;;;409.77;198.93;;;;;;;5.55;85.74;101621.02;5367659;54;21152;-78
2021/11/10 19:11:57;;;;;;;311.33;137.30;;;;;;;5.63;86.00;101622.05;5278727;54;1138911;-76
2021/11/10 19:21:55;;;;;;;172.00;81.50;;;;;;;5.65;85.68;101614.97;5270981;54;1143444;-80
2021/11/10 19:27:02;;;;;;;151.17;64.40;;;;;;;5.60;85.30;101612.97;5334391;54;1141134;-77
2021/11/10 19:32:10;;;;;;;171.02;73.20;;;;;;;5.49;85.05;101611.23;5299906;55;1141232;-81
2021/11/10 19:37:16;;;;;;;184.50;72.60;;;;;;;5.28;85.05;101607.66;5296338;54;1141393;-80
2021/11/10 19:42:23;;;;;;;205.90;74.67;;;;;;;5.15;85.33;101609.91;5263875;54;1141040;-76
2021/11/10 19:47:28;;;;;;;117.47;45.10;;;;;;;5.01;85.09;101607.40;5276702;54;1141031;-80
2021/11/10 19:52:35;;;;;;;105.90;46.77;;;;;;;4.95;85.70;101605.39;5276549;55;1143153;-80
2021/11/10 19:57:43;;;;;;;136.00;58.93;;;;;;;5.00;86.27;101608.31;5283666;54;1143135;-74
2021/11/10 20:02:48;;;;;;;145.40;63.10;;;;;;;5.05;86.48;101607.20;5268236;55;1141300;-82
2021/11/10 20:07:54;;;;;;;217.87;98.10;;;;;;;5.03;86.06;101610.37;5325218;54;1141051;-77
2021/11/10 20:13:01;;;;;;;305.03;120.83;;;;;;;4.94;86.17;101608.92;5328378;54;1141104;-80
2021/11/10 20:18:07;;;;;;;357.37;124.30;;;;;;;4.87;86.25;101611.39;5339472;54;1143266;-81
2021/11/10 20:23:14;;;;;;;483.23;172.33;;;;;;;4.90;86.55;101608.62;5285454;54;1143304;-76
2021/11/10 20:28:21;;;;;;;451.00;161.33;;;;;;;4.95;86.51;101611.09;5299399;54;1145355;-79
2021/11/10 20:33:27;;;;;;;370.23;123.00;;;;;;;4.98;86.45;101606.20;5304321;54;1143211;-80
2021/11/10 20:38:32;;;;;;;341.00;118.50;;;;;;;4.97;86.47;101613.66;5339367;55;1143205;-75
2021/11/10 20:43:40;;;;;;;302.50;108.80;;;;;;;4.92;86.21;101602.02;5328067;54;1143312;-75
2021/11/10 20:48:45;;;;;;;287.27;105.70;;;;;;;4.79;85.57;101609.94;5331245;54;1143095;-76
2021/11/10 20:53:53;;;;;;;180.37;71.63;;;;;;;4.67;85.72;101612.55;5335454;54;1143165;-77
2021/11/10 20:59:01;;;;;;;165.30;58.13;;;;;;;4.61;86.02;101614.06;5342632;54;1141302;-75
2021/11/10 21:04:06;;;;;;;192.13;68.20;;;;;;;4.52;85.48;101607.41;5335908;54;1141193;-77
2021/11/10 21:09:12;;;;;;;254.20;89.73;;;;;;;4.50;85.60;101610.98;5362967;54;1143484;-80
2021/11/10 21:14:19;;;;;;;301.87;106.73;;;;;;;4.45;85.44;101607.66;5399707;54;1141098;-76
2021/11/10 21:19:25;;;;;;;375.67;133.30;;;;;;;4.40;85.67;101594.73;5374170;54;1143103;-78
2021/11/10 21:24:31;;;;;;;474.03;160.47;;;;;;;4.35;85.87;101601.89;5369131;54;1143102;-78
2021/11/10 21:29:37;;;;;;;412.70;130.87;;;;;;;4.27;85.80;101612.23;5360692;54;1143379;-78
2021/11/10 21:34:43;;;;;;;470.87;156.47;;;;;;;4.16;85.69;101608.20;5336878;54;1143128;-78
2021/11/10 21:39:51;;;;;;;539.23;182.73;;;;;;;4.01;84.97;101607.86;5314522;54;1143074;-79
2021/11/10 21:44:57;;;;;;;480.23;158.77;;;;;;;4.00;85.68;101612.69;5355636;54;1145238;-83
2021/11/10 21:50:05;;;;;;;404.30;128.23;;;;;;;4.03;85.90;101607.36;5331825;54;1141033;-77
2021/11/10 21:55:12;;;;;;;135.80;52.77;;;;;;;3.97;85.64;101601.89;5294429;54;1140984;-78
2021/11/10 22:00:24;;;;;;;161.90;56.53;;;;;;;3.87;85.55;101602.63;5295964;54;1139066;-82
2021/11/10 22:05:30;;;;;;;165.20;61.00;;;;;;;3.71;85.03;101599.24;5305495;54;1139145;-77
2021/11/10 22:10:36;;;;;;;211.23;75.80;;;;;;;3.63;85.52;101602.12;5298351;54;1138948;-79
2021/11/10 22:15:42;;;;;;;303.87;97.00;;;;;;;3.65;85.71;101596.39;5307693;54;1138932;-77
2021/11/10 22:20:48;;;;;;;285.27;99.90;;;;;;;3.63;85.45;101598.64;5311371;55;1138995;-79
2021/11/10 22:25:55;;;;;;;316.90;103.73;;;;;;;3.62;85.68;101606.94;5315340;54;1138956;-81
2021/11/10 22:31:01;;;;;;;265.70;90.63;;;;;;;3.57;85.72;101605.36;5321344;54;1141021;-83
2021/11/10 22:36:08;;;;;;;203.93;73.77;;;;;;;3.52;85.80;101604.19;5330987;54;1139002;-77
2021/11/10 22:41:14;;;;;;;140.77;62.00;;;;;;;3.49;85.83;101609.09;5318293;54;1139056;-75
2021/11/10 22:46:20;;;;;;;157.20;68.13;;;;;;;3.56;86.14;101610.19;5333443;54;1141188;-79
2021/11/10 22:51:26;;;;;;;144.57;64.90;;;;;;;3.58;86.15;101594.00;5342103;54;1138833;-78
2021/11/10 22:56:32;;;;;;;186.37;72.83;;;;;;;3.60;86.57;101593.05;5333034;54;1139041;-77
2021/11/10 23:01:37;;;;;;;199.17;75.93;;;;;;;3.58;86.57;101583.08;5343744;54;1138942;-80
2021/11/10 23:06:44;;;;;;;140.07;60.73;;;;;;;3.55;86.30;101583.17;5332816;54;1139211;-78